sensor_id;sensor_type;location;lat;lon;timestamp;P1;durP1;ratioP1;P2;durP2;ratioP2
63320;SDS011;49449;48.800;9.534;2023-10-09T00:02:07;6.65;;;3.55;;
63320;SDS011;49449;48.800;9.534;2023-10-09T00:04:36;6.65;;;4.13;;
63320;SDS011;49449;48.800;9.534;2023-10-09T00:07:07;7.13;;;4.22;;
63320;SDS011;49449;48.800;9.534;2023-10-09T00:09:35;9.13;;;4.03;;
63320;SDS011;49449;48.800;9.534;2023-10-09T00:12:15;5.95;;;3.63;;
63320;SDS011;49449;48.800;9.534;2023-10-09T00:14:48;6.82;;;4.22;;
63320;SDS011;49449;48.800;9.534;2023-10-09T00:17:23;6.00;;;3.60;;
63320;SDS011;49449;48.800;9.534;2023-10-09T00:19:57;6.60;;;4.10;;
63320;SDS011;49449;48.800;9.534;2023-10-09T00:22:35;5.47;;;3.80;;
63320;SDS011;49449;48.800;9.534;2023-10-09T00:25:09;6.93;;;4.15;;
63320;SDS011;49449;48.800;9.534;2023-10-09T00:27:38;6.68;;;4.07;;
63320;SDS011;49449;48.800;9.534;2023-10-09T00:30:09;8.88;;;4.07;;
63320;SDS011;49449;48.800;9.534;2023-10-09T00:32:43;8.60;;;4.25;;
63320;SDS011;49449;48.800;9.534;2023-10-09T00:35:18;8.73;;;3.72;;
63320;SDS011;49449;48.800;9.534;2023-10-09T00:38:06;5.28;;;3.60;;
63320;SDS011;49449;48.800;9.534;2023-10-09T00:40:42;8.85;;;4.55;;
63320;SDS011;49449;48.800;9.534;2023-10-09T00:43:14;6.05;;;3.85;;
63320;SDS011;49449;48.800;9.534;2023-10-09T00:45:42;7.00;;;3.95;;
63320;SDS011;49449;48.800;9.534;2023-10-09T00:48:12;7.40;;;4.00;;
63320;SDS011;49449;48.800;9.534;2023-10-09T00:50:48;8.63;;;3.97;;
63320;SDS011;49449;48.800;9.534;2023-10-09T00:53:20;9.95;;;4.22;;
63320;SDS011;49449;48.800;9.534;2023-10-09T00:55:57;6.75;;;4.00;;
63320;SDS011;49449;48.800;9.534;2023-10-09T00:58:29;6.88;;;3.75;;
63320;SDS011;49449;48.800;9.534;2023-10-09T01:01:02;5.32;;;3.53;;
63320;SDS011;49449;48.800;9.534;2023-10-09T01:03:32;7.00;;;4.00;;
63320;SDS011;49449;48.800;9.534;2023-10-09T01:06:01;6.03;;;3.40;;
63320;SDS011;49449;48.800;9.534;2023-10-09T01:08:42;6.05;;;3.50;;
63320;SDS011;49449;48.800;9.534;2023-10-09T01:11:21;5.78;;;3.75;;
63320;SDS011;49449;48.800;9.534;2023-10-09T01:13:55;5.10;;;3.58;;
63320;SDS011;49449;48.800;9.534;2023-10-09T01:16:38;6.35;;;3.85;;
63320;SDS011;49449;48.800;9.534;2023-10-09T01:19:09;9.30;;;3.92;;
63320;SDS011;49449;48.800;9.534;2023-10-09T01:21:46;7.50;;;3.90;;
63320;SDS011;49449;48.800;9.534;2023-10-09T01:24:17;6.50;;;3.67;;
63320;SDS011;49449;48.800;9.534;2023-10-09T01:26:47;8.23;;;4.00;;
63320;SDS011;49449;48.800;9.534;2023-10-09T01:29:16;7.47;;;3.55;;
63320;SDS011;49449;48.800;9.534;2023-10-09T01:31:45;6.18;;;3.92;;
63320;SDS011;49449;48.800;9.534;2023-10-09T01:34:21;8.80;;;4.00;;
63320;SDS011;49449;48.800;9.534;2023-10-09T01:37:05;7.57;;;3.78;;
63320;SDS011;49449;48.800;9.534;2023-10-09T01:39:39;7.85;;;3.80;;
63320;SDS011;49449;48.800;9.534;2023-10-09T01:42:09;6.30;;;3.60;;
63320;SDS011;49449;48.800;9.534;2023-10-09T01:44:49;6.93;;;3.83;;
63320;SDS011;49449;48.800;9.534;2023-10-09T01:47:19;6.00;;;3.88;;
63320;SDS011;49449;48.800;9.534;2023-10-09T01:49:48;7.78;;;4.07;;
63320;SDS011;49449;48.800;9.534;2023-10-09T01:52:19;5.80;;;3.80;;
63320;SDS011;49449;48.800;9.534;2023-10-09T01:54:50;8.40;;;3.85;;
63320;SDS011;49449;48.800;9.534;2023-10-09T01:57:19;5.72;;;3.58;;
63320;SDS011;49449;48.800;9.534;2023-10-09T01:59:49;6.53;;;3.90;;
63320;SDS011;49449;48.800;9.534;2023-10-09T02:02:20;7.00;;;4.32;;
63320;SDS011;49449;48.800;9.534;2023-10-09T02:05:00;5.80;;;3.72;;
63320;SDS011;49449;48.800;9.534;2023-10-09T02:10:12;8.10;;;3.70;;
63320;SDS011;49449;48.800;9.534;2023-10-09T02:12:52;5.60;;;3.85;;
63320;SDS011;49449;48.800;9.534;2023-10-09T02:15:25;7.13;;;3.70;;
63320;SDS011;49449;48.800;9.534;2023-10-09T02:18:20;6.28;;;4.22;;
63320;SDS011;49449;48.800;9.534;2023-10-09T02:21:06;8.73;;;4.00;;
63320;SDS011;49449;48.800;9.534;2023-10-09T02:23:40;6.43;;;4.43;;
63320;SDS011;49449;48.800;9.534;2023-10-09T02:26:13;6.53;;;4.53;;
63320;SDS011;49449;48.800;9.534;2023-10-09T02:28:51;8.15;;;4.25;;
63320;SDS011;49449;48.800;9.534;2023-10-09T02:31:25;8.07;;;4.40;;
63320;SDS011;49449;48.800;9.534;2023-10-09T02:34:03;8.23;;;5.00;;
63320;SDS011;49449;48.800;9.534;2023-10-09T02:36:32;9.45;;;4.90;;
63320;SDS011;49449;48.800;9.534;2023-10-09T02:39:01;8.00;;;4.55;;
63320;SDS011;49449;48.800;9.534;2023-10-09T02:41:32;5.63;;;3.95;;
63320;SDS011;49449;48.800;9.534;2023-10-09T02:44:01;7.53;;;3.75;;
63320;SDS011;49449;48.800;9.534;2023-10-09T02:46:37;8.52;;;3.95;;
63320;SDS011;49449;48.800;9.534;2023-10-09T02:49:07;7.47;;;4.53;;
63320;SDS011;49449;48.800;9.534;2023-10-09T02:51:36;7.95;;;4.65;;
63320;SDS011;49449;48.800;9.534;2023-10-09T02:54:08;7.05;;;4.72;;
63320;SDS011;49449;48.800;9.534;2023-10-09T02:56:45;7.20;;;3.78;;
63320;SDS011;49449;48.800;9.534;2023-10-09T02:59:21;8.50;;;4.90;;
63320;SDS011;49449;48.800;9.534;2023-10-09T03:01:49;8.60;;;3.97;;
63320;SDS011;49449;48.800;9.534;2023-10-09T03:04:20;5.82;;;4.43;;
63320;SDS011;49449;48.800;9.534;2023-10-09T03:06:50;7.88;;;4.90;;
63320;SDS011;49449;48.800;9.534;2023-10-09T03:09:17;6.97;;;4.72;;
63320;SDS011;49449;48.800;9.534;2023-10-09T03:11:53;6.25;;;3.92;;
63320;SDS011;49449;48.800;9.534;2023-10-09T03:14:22;6.72;;;4.28;;
63320;SDS011;49449;48.800;9.534;2023-10-09T03:16:52;8.23;;;4.82;;
63320;SDS011;49449;48.800;9.534;2023-10-09T03:19:21;6.70;;;4.25;;
63320;SDS011;49449;48.800;9.534;2023-10-09T03:21:51;6.82;;;3.90;;
63320;SDS011;49449;48.800;9.534;2023-10-09T03:24:19;6.25;;;4.35;;
63320;SDS011;49449;48.800;9.534;2023-10-09T03:26:49;7.80;;;3.95;;
63320;SDS011;49449;48.800;9.534;2023-10-09T03:29:16;7.43;;;4.50;;
63320;SDS011;49449;48.800;9.534;2023-10-09T03:31:45;6.60;;;4.60;;
63320;SDS011;49449;48.800;9.534;2023-10-09T03:34:13;7.95;;;3.83;;
63320;SDS011;49449;48.800;9.534;2023-10-09T03:36:43;6.93;;;4.30;;
63320;SDS011;49449;48.800;9.534;2023-10-09T03:39:10;9.10;;;4.22;;
63320;SDS011;49449;48.800;9.534;2023-10-09T03:41:51;7.80;;;3.90;;
63320;SDS011;49449;48.800;9.534;2023-10-09T03:44:20;5.28;;;3.70;;
63320;SDS011;49449;48.800;9.534;2023-10-09T03:46:48;8.35;;;4.35;;
63320;SDS011;49449;48.800;9.534;2023-10-09T03:49:17;6.72;;;3.80;;
63320;SDS011;49449;48.800;9.534;2023-10-09T03:51:51;6.45;;;4.55;;
63320;SDS011;49449;48.800;9.534;2023-10-09T03:54:19;6.75;;;4.13;;
63320;SDS011;49449;48.800;9.534;2023-10-09T03:56:48;6.53;;;3.72;;
63320;SDS011;49449;48.800;9.534;2023-10-09T03:59:16;7.05;;;4.75;;
63320;SDS011;49449;48.800;9.534;2023-10-09T04:01:46;6.50;;;4.07;;
63320;SDS011;49449;48.800;9.534;2023-10-09T04:04:15;5.97;;;3.70;;
63320;SDS011;49449;48.800;9.534;2023-10-09T04:06:42;6.80;;;4.65;;
63320;SDS011;49449;48.800;9.534;2023-10-09T04:09:14;6.22;;;3.92;;
63320;SDS011;49449;48.800;9.534;2023-10-09T04:11:54;8.45;;;4.57;;
63320;SDS011;49449;48.800;9.534;2023-10-09T04:14:40;7.93;;;3.70;;
63320;SDS011;49449;48.800;9.534;2023-10-09T04:17:16;6.85;;;4.03;;
63320;SDS011;49449;48.800;9.534;2023-10-09T04:20:06;7.38;;;4.55;;
63320;SDS011;49449;48.800;9.534;2023-10-09T04:22:53;9.70;;;6.18;;
63320;SDS011;49449;48.800;9.534;2023-10-09T04:25:27;7.00;;;4.95;;
63320;SDS011;49449;48.800;9.534;2023-10-09T04:27:56;7.93;;;4.35;;
63320;SDS011;49449;48.800;9.534;2023-10-09T04:30:35;7.53;;;5.05;;
63320;SDS011;49449;48.800;9.534;2023-10-09T04:33:06;8.35;;;5.05;;
63320;SDS011;49449;48.800;9.534;2023-10-09T04:35:39;8.82;;;4.45;;
63320;SDS011;49449;48.800;9.534;2023-10-09T04:38:19;7.68;;;4.95;;
63320;SDS011;49449;48.800;9.534;2023-10-09T04:40:51;8.45;;;5.03;;
63320;SDS011;49449;48.800;9.534;2023-10-09T04:43:18;9.65;;;4.65;;
63320;SDS011;49449;48.800;9.534;2023-10-09T04:45:49;8.55;;;4.50;;
63320;SDS011;49449;48.800;9.534;2023-10-09T04:48:35;9.57;;;4.72;;
63320;SDS011;49449;48.800;9.534;2023-10-09T04:51:05;6.90;;;4.10;;
63320;SDS011;49449;48.800;9.534;2023-10-09T04:53:48;9.65;;;5.70;;
63320;SDS011;49449;48.800;9.534;2023-10-09T04:56:27;8.77;;;5.35;;
63320;SDS011;49449;48.800;9.534;2023-10-09T04:58:59;8.50;;;4.45;;
63320;SDS011;49449;48.800;9.534;2023-10-09T05:01:34;9.80;;;5.15;;
63320;SDS011;49449;48.800;9.534;2023-10-09T05:04:10;9.13;;;5.65;;
63320;SDS011;49449;48.800;9.534;2023-10-09T05:06:56;8.57;;;4.78;;
63320;SDS011;49449;48.800;9.534;2023-10-09T05:09:23;7.32;;;4.25;;
63320;SDS011;49449;48.800;9.534;2023-10-09T05:11:54;7.75;;;4.45;;
63320;SDS011;49449;48.800;9.534;2023-10-09T05:14:36;7.70;;;4.78;;
63320;SDS011;49449;48.800;9.534;2023-10-09T05:17:12;10.45;;;5.35;;
63320;SDS011;49449;48.800;9.534;2023-10-09T05:19:42;7.85;;;5.30;;
63320;SDS011;49449;48.800;9.534;2023-10-09T05:22:21;6.90;;;4.95;;
63320;SDS011;49449;48.800;9.534;2023-10-09T05:25:10;8.93;;;5.38;;
63320;SDS011;49449;48.800;9.534;2023-10-09T05:28:04;7.30;;;5.07;;
63320;SDS011;49449;48.800;9.534;2023-10-09T05:30:51;8.55;;;5.68;;
63320;SDS011;49449;48.800;9.534;2023-10-09T05:33:29;8.05;;;5.47;;
63320;SDS011;49449;48.800;9.534;2023-10-09T05:35:56;9.98;;;5.88;;
63320;SDS011;49449;48.800;9.534;2023-10-09T05:38:43;11.98;;;5.43;;
63320;SDS011;49449;48.800;9.534;2023-10-09T05:41:25;10.93;;;5.38;;
63320;SDS011;49449;48.800;9.534;2023-10-09T05:44:15;11.45;;;5.63;;
63320;SDS011;49449;48.800;9.534;2023-10-09T05:47:00;8.32;;;6.10;;
63320;SDS011;49449;48.800;9.534;2023-10-09T05:49:46;8.57;;;4.57;;
63320;SDS011;49449;48.800;9.534;2023-10-09T05:52:21;7.00;;;4.63;;
63320;SDS011;49449;48.800;9.534;2023-10-09T05:55:09;11.85;;;4.82;;
63320;SDS011;49449;48.800;9.534;2023-10-09T05:58:07;11.02;;;5.32;;
63320;SDS011;49449;48.800;9.534;2023-10-09T06:01:02;9.85;;;5.28;;
63320;SDS011;49449;48.800;9.534;2023-10-09T06:03:55;8.23;;;5.13;;
63320;SDS011;49449;48.800;9.534;2023-10-09T06:06:30;7.50;;;4.55;;
63320;SDS011;49449;48.800;9.534;2023-10-09T06:09:11;8.50;;;5.35;;
63320;SDS011;49449;48.800;9.534;2023-10-09T06:11:57;9.85;;;5.93;;
63320;SDS011;49449;48.800;9.534;2023-10-09T06:14:39;8.75;;;5.63;;
63320;SDS011;49449;48.800;9.534;2023-10-09T06:17:25;8.38;;;4.78;;
63320;SDS011;49449;48.800;9.534;2023-10-09T06:20:10;10.10;;;4.25;;
63320;SDS011;49449;48.800;9.534;2023-10-09T06:22:52;9.07;;;4.82;;
63320;SDS011;49449;48.800;9.534;2023-10-09T06:25:42;9.30;;;5.28;;
63320;SDS011;49449;48.800;9.534;2023-10-09T06:28:17;9.30;;;5.53;;
63320;SDS011;49449;48.800;9.534;2023-10-09T06:30:59;11.38;;;5.35;;
63320;SDS011;49449;48.800;9.534;2023-10-09T06:33:49;8.82;;;5.25;;
63320;SDS011;49449;48.800;9.534;2023-10-09T06:36:41;7.25;;;3.80;;
63320;SDS011;49449;48.800;9.534;2023-10-09T06:39:19;11.38;;;4.80;;
63320;SDS011;49449;48.800;9.534;2023-10-09T06:42:04;7.43;;;4.55;;
63320;SDS011;49449;48.800;9.534;2023-10-09T06:44:56;9.02;;;5.07;;
63320;SDS011;49449;48.800;9.534;2023-10-09T06:47:26;10.98;;;4.78;;
63320;SDS011;49449;48.800;9.534;2023-10-09T06:49:55;11.50;;;5.78;;
63320;SDS011;49449;48.800;9.534;2023-10-09T06:52:37;7.45;;;5.03;;
63320;SDS011;49449;48.800;9.534;2023-10-09T06:55:22;7.88;;;3.95;;
63320;SDS011;49449;48.800;9.534;2023-10-09T06:57:59;7.53;;;4.75;;
63320;SDS011;49449;48.800;9.534;2023-10-09T07:00:27;7.60;;;4.35;;
63320;SDS011;49449;48.800;9.534;2023-10-09T07:03:13;7.88;;;5.20;;
63320;SDS011;49449;48.800;9.534;2023-10-09T07:05:45;10.40;;;4.97;;
63320;SDS011;49449;48.800;9.534;2023-10-09T07:08:26;8.50;;;4.07;;
63320;SDS011;49449;48.800;9.534;2023-10-09T07:11:03;7.72;;;4.47;;
63320;SDS011;49449;48.800;9.534;2023-10-09T07:13:45;9.02;;;5.25;;
63320;SDS011;49449;48.800;9.534;2023-10-09T07:16:22;9.50;;;4.65;;
63320;SDS011;49449;48.800;9.534;2023-10-09T07:18:55;9.93;;;4.90;;
63320;SDS011;49449;48.800;9.534;2023-10-09T07:21:37;8.63;;;4.50;;
63320;SDS011;49449;48.800;9.534;2023-10-09T07:24:05;9.65;;;6.15;;
63320;SDS011;49449;48.800;9.534;2023-10-09T07:26:43;9.07;;;6.50;;
63320;SDS011;49449;48.800;9.534;2023-10-09T07:29:19;8.57;;;4.80;;
63320;SDS011;49449;48.800;9.534;2023-10-09T07:31:49;9.00;;;5.18;;
63320;SDS011;49449;48.800;9.534;2023-10-09T07:34:24;8.98;;;4.35;;
63320;SDS011;49449;48.800;9.534;2023-10-09T07:36:59;9.52;;;4.78;;
63320;SDS011;49449;48.800;9.534;2023-10-09T07:39:30;8.75;;;4.80;;
63320;SDS011;49449;48.800;9.534;2023-10-09T07:42:02;9.38;;;4.80;;
63320;SDS011;49449;48.800;9.534;2023-10-09T07:44:46;11.40;;;5.90;;
63320;SDS011;49449;48.800;9.534;2023-10-09T07:47:19;12.85;;;4.85;;
63320;SDS011;49449;48.800;9.534;2023-10-09T07:49:59;10.38;;;4.88;;
63320;SDS011;49449;48.800;9.534;2023-10-09T07:52:29;8.23;;;4.57;;
63320;SDS011;49449;48.800;9.534;2023-10-09T07:54:56;11.00;;;5.20;;
63320;SDS011;49449;48.800;9.534;2023-10-09T07:57:34;8.57;;;5.00;;
63320;SDS011;49449;48.800;9.534;2023-10-09T08:00:09;8.85;;;4.30;;
63320;SDS011;49449;48.800;9.534;2023-10-09T08:03:01;15.88;;;8.60;;
63320;SDS011;49449;48.800;9.534;2023-10-09T08:05:35;13.95;;;8.23;;
63320;SDS011;49449;48.800;9.534;2023-10-09T08:08:12;13.63;;;6.80;;
63320;SDS011;49449;48.800;9.534;2023-10-09T08:11:08;11.88;;;5.78;;
63320;SDS011;49449;48.800;9.534;2023-10-09T08:14:14;10.05;;;4.90;;
63320;SDS011;49449;48.800;9.534;2023-10-09T08:17:08;12.07;;;5.50;;
63320;SDS011;49449;48.800;9.534;2023-10-09T08:19:40;11.07;;;5.28;;
63320;SDS011;49449;48.800;9.534;2023-10-09T08:22:21;9.68;;;4.97;;
63320;SDS011;49449;48.800;9.534;2023-10-09T08:25:09;8.80;;;4.57;;
63320;SDS011;49449;48.800;9.534;2023-10-09T08:27:54;9.27;;;4.72;;
63320;SDS011;49449;48.800;9.534;2023-10-09T08:30:27;6.85;;;4.18;;
63320;SDS011;49449;48.800;9.534;2023-10-09T08:33:07;11.80;;;4.80;;
63320;SDS011;49449;48.800;9.534;2023-10-09T08:35:52;9.65;;;4.07;;
63320;SDS011;49449;48.800;9.534;2023-10-09T08:38:28;14.65;;;5.03;;
63320;SDS011;49449;48.800;9.534;2023-10-09T08:43:46;10.77;;;4.95;;
63320;SDS011;49449;48.800;9.534;2023-10-09T08:46:20;8.02;;;4.65;;
63320;SDS011;49449;48.800;9.534;2023-10-09T08:51:17;14.40;;;6.82;;
63320;SDS011;49449;48.800;9.534;2023-10-09T08:53:46;9.63;;;4.78;;
63320;SDS011;49449;48.800;9.534;2023-10-09T08:56:15;11.65;;;4.60;;
63320;SDS011;49449;48.800;9.534;2023-10-09T08:58:49;15.65;;;7.68;;
63320;SDS011;49449;48.800;9.534;2023-10-09T09:01:20;10.70;;;6.20;;
63320;SDS011;49449;48.800;9.534;2023-10-09T09:03:49;15.88;;;5.40;;
63320;SDS011;49449;48.800;9.534;2023-10-09T09:06:17;9.25;;;4.80;;
63320;SDS011;49449;48.800;9.534;2023-10-09T09:08:46;11.57;;;5.10;;
63320;SDS011;49449;48.800;9.534;2023-10-09T09:11:17;12.00;;;4.10;;
63320;SDS011;49449;48.800;9.534;2023-10-09T09:13:59;9.35;;;4.18;;
63320;SDS011;49449;48.800;9.534;2023-10-09T09:16:32;12.40;;;4.50;;
63320;SDS011;49449;48.800;9.534;2023-10-09T09:19:02;12.77;;;5.60;;
63320;SDS011;49449;48.800;9.534;2023-10-09T09:21:32;13.68;;;4.65;;
63320;SDS011;49449;48.800;9.534;2023-10-09T09:24:05;10.95;;;4.85;;
63320;SDS011;49449;48.800;9.534;2023-10-09T09:26:42;9.93;;;4.25;;
63320;SDS011;49449;48.800;9.534;2023-10-09T09:29:14;13.63;;;4.78;;
63320;SDS011;49449;48.800;9.534;2023-10-09T09:31:55;13.63;;;5.60;;
63320;SDS011;49449;48.800;9.534;2023-10-09T09:34:24;11.68;;;4.68;;
63320;SDS011;49449;48.800;9.534;2023-10-09T09:36:55;9.65;;;4.50;;
63320;SDS011;49449;48.800;9.534;2023-10-09T09:39:25;8.75;;;4.43;;
63320;SDS011;49449;48.800;9.534;2023-10-09T09:42:01;12.43;;;4.45;;
63320;SDS011;49449;48.800;9.534;2023-10-09T09:44:31;9.05;;;3.88;;
63320;SDS011;49449;48.800;9.534;2023-10-09T09:47:01;9.38;;;4.25;;
63320;SDS011;49449;48.800;9.534;2023-10-09T09:49:32;9.88;;;4.22;;
63320;SDS011;49449;48.800;9.534;2023-10-09T09:52:04;10.15;;;5.03;;
63320;SDS011;49449;48.800;9.534;2023-10-09T09:54:36;12.68;;;4.40;;
63320;SDS011;49449;48.800;9.534;2023-10-09T09:57:06;11.65;;;4.25;;
63320;SDS011;49449;48.800;9.534;2023-10-09T09:59:37;9.50;;;4.07;;
63320;SDS011;49449;48.800;9.534;2023-10-09T10:02:28;9.95;;;4.38;;
63320;SDS011;49449;48.800;9.534;2023-10-09T10:05:01;12.52;;;4.65;;
63320;SDS011;49449;48.800;9.534;2023-10-09T10:07:34;12.68;;;5.28;;
63320;SDS011;49449;48.800;9.534;2023-10-09T10:13:05;14.30;;;4.55;;
63320;SDS011;49449;48.800;9.534;2023-10-09T10:15:59;10.90;;;4.45;;
63320;SDS011;49449;48.800;9.534;2023-10-09T10:21:30;9.90;;;4.00;;
63320;SDS011;49449;48.800;9.534;2023-10-09T10:24:05;10.05;;;4.28;;
63320;SDS011;49449;48.800;9.534;2023-10-09T10:27:25;7.72;;;3.13;;
63320;SDS011;49449;48.800;9.534;2023-10-09T10:33:00;8.05;;;3.55;;
63320;SDS011;49449;48.800;9.534;2023-10-09T10:35:36;11.70;;;3.80;;
63320;SDS011;49449;48.800;9.534;2023-10-09T10:38:26;9.27;;;4.03;;
63320;SDS011;49449;48.800;9.534;2023-10-09T10:41:12;11.50;;;3.33;;
63320;SDS011;49449;48.800;9.534;2023-10-09T10:43:43;14.27;;;4.90;;
63320;SDS011;49449;48.800;9.534;2023-10-09T10:46:47;9.13;;;3.75;;
63320;SDS011;49449;48.800;9.534;2023-10-09T10:49:18;11.25;;;3.75;;
63320;SDS011;49449;48.800;9.534;2023-10-09T10:51:48;9.35;;;3.25;;
63320;SDS011;49449;48.800;9.534;2023-10-09T10:54:28;13.35;;;3.85;;
63320;SDS011;49449;48.800;9.534;2023-10-09T10:57:37;12.25;;;3.53;;
63320;SDS011;49449;48.800;9.534;2023-10-09T11:00:19;10.05;;;3.75;;
63320;SDS011;49449;48.800;9.534;2023-10-09T11:03:05;9.32;;;3.90;;
63320;SDS011;49449;48.800;9.534;2023-10-09T11:05:45;10.40;;;3.78;;
63320;SDS011;49449;48.800;9.534;2023-10-09T11:08:18;9.60;;;3.92;;
63320;SDS011;49449;48.800;9.534;2023-10-09T11:10:56;9.13;;;4.22;;
63320;SDS011;49449;48.800;9.534;2023-10-09T11:13:41;9.00;;;3.42;;
63320;SDS011;49449;48.800;9.534;2023-10-09T11:16:23;7.45;;;3.70;;
63320;SDS011;49449;48.800;9.534;2023-10-09T11:19:08;7.57;;;3.85;;
63320;SDS011;49449;48.800;9.534;2023-10-09T11:21:50;12.82;;;4.18;;
63320;SDS011;49449;48.800;9.534;2023-10-09T11:24:25;11.05;;;4.07;;
63320;SDS011;49449;48.800;9.534;2023-10-09T11:26:56;13.48;;;4.32;;
63320;SDS011;49449;48.800;9.534;2023-10-09T11:29:31;11.25;;;4.00;;
63320;SDS011;49449;48.800;9.534;2023-10-09T11:32:14;10.95;;;4.10;;
63320;SDS011;49449;48.800;9.534;2023-10-09T11:34:44;14.82;;;3.95;;
63320;SDS011;49449;48.800;9.534;2023-10-09T11:37:18;11.25;;;4.43;;
63320;SDS011;49449;48.800;9.534;2023-10-09T11:40:04;14.73;;;4.47;;
63320;SDS011;49449;48.800;9.534;2023-10-09T11:42:50;12.52;;;4.22;;
63320;SDS011;49449;48.800;9.534;2023-10-09T11:45:24;11.38;;;4.18;;
63320;SDS011;49449;48.800;9.534;2023-10-09T11:47:55;11.77;;;3.75;;
63320;SDS011;49449;48.800;9.534;2023-10-09T11:50:40;14.93;;;4.72;;
63320;SDS011;49449;48.800;9.534;2023-10-09T11:53:17;10.68;;;4.13;;
63320;SDS011;49449;48.800;9.534;2023-10-09T11:55:59;12.38;;;3.63;;
63320;SDS011;49449;48.800;9.534;2023-10-09T11:58:29;13.88;;;3.85;;
63320;SDS011;49449;48.800;9.534;2023-10-09T12:00:58;12.90;;;4.57;;
63320;SDS011;49449;48.800;9.534;2023-10-09T12:03:25;11.95;;;4.40;;
63320;SDS011;49449;48.800;9.534;2023-10-09T12:05:57;12.68;;;3.60;;
63320;SDS011;49449;48.800;9.534;2023-10-09T12:08:30;10.27;;;4.15;;
63320;SDS011;49449;48.800;9.534;2023-10-09T12:10:59;12.85;;;4.30;;
63320;SDS011;49449;48.800;9.534;2023-10-09T12:13:35;8.13;;;3.50;;
63320;SDS011;49449;48.800;9.534;2023-10-09T12:16:05;11.98;;;4.35;;
63320;SDS011;49449;48.800;9.534;2023-10-09T12:18:35;13.38;;;4.45;;
63320;SDS011;49449;48.800;9.534;2023-10-09T12:21:05;11.88;;;4.05;;
63320;SDS011;49449;48.800;9.534;2023-10-09T12:23:33;13.95;;;4.68;;
63320;SDS011;49449;48.800;9.534;2023-10-09T12:26:02;13.35;;;4.03;;
63320;SDS011;49449;48.800;9.534;2023-10-09T12:28:30;11.18;;;4.07;;
63320;SDS011;49449;48.800;9.534;2023-10-09T12:31:01;12.52;;;4.00;;
63320;SDS011;49449;48.800;9.534;2023-10-09T12:33:29;11.48;;;4.43;;
63320;SDS011;49449;48.800;9.534;2023-10-09T12:35:57;13.52;;;4.80;;
63320;SDS011;49449;48.800;9.534;2023-10-09T12:38:26;16.70;;;5.85;;
63320;SDS011;49449;48.800;9.534;2023-10-09T12:41:02;11.48;;;4.90;;
63320;SDS011;49449;48.800;9.534;2023-10-09T12:43:34;10.75;;;4.65;;
63320;SDS011;49449;48.800;9.534;2023-10-09T12:46:07;11.98;;;4.10;;
63320;SDS011;49449;48.800;9.534;2023-10-09T12:48:35;13.57;;;4.03;;
63320;SDS011;49449;48.800;9.534;2023-10-09T12:51:03;10.82;;;3.97;;
63320;SDS011;49449;48.800;9.534;2023-10-09T12:53:33;10.75;;;3.95;;
63320;SDS011;49449;48.800;9.534;2023-10-09T12:56:01;16.15;;;4.95;;
63320;SDS011;49449;48.800;9.534;2023-10-09T12:58:29;13.60;;;4.22;;
63320;SDS011;49449;48.800;9.534;2023-10-09T13:00:57;15.18;;;4.20;;
63320;SDS011;49449;48.800;9.534;2023-10-09T13:03:37;12.98;;;4.22;;
63320;SDS011;49449;48.800;9.534;2023-10-09T13:06:05;11.60;;;4.45;;
63320;SDS011;49449;48.800;9.534;2023-10-09T13:08:36;11.45;;;3.72;;
63320;SDS011;49449;48.800;9.534;2023-10-09T13:11:07;12.05;;;3.97;;
63320;SDS011;49449;48.800;9.534;2023-10-09T13:13:38;14.00;;;3.92;;
63320;SDS011;49449;48.800;9.534;2023-10-09T13:16:08;14.05;;;4.78;;
63320;SDS011;49449;48.800;9.534;2023-10-09T13:18:41;13.55;;;5.07;;
63320;SDS011;49449;48.800;9.534;2023-10-09T13:23:44;14.07;;;3.97;;
63320;SDS011;49449;48.800;9.534;2023-10-09T13:26:14;15.48;;;4.57;;
63320;SDS011;49449;48.800;9.534;2023-10-09T13:28:48;14.15;;;4.90;;
63320;SDS011;49449;48.800;9.534;2023-10-09T13:31:16;13.23;;;4.68;;
63320;SDS011;49449;48.800;9.534;2023-10-09T13:33:48;13.45;;;4.22;;
63320;SDS011;49449;48.800;9.534;2023-10-09T13:36:20;12.48;;;3.88;;
63320;SDS011;49449;48.800;9.534;2023-10-09T13:38:55;14.35;;;4.18;;
63320;SDS011;49449;48.800;9.534;2023-10-09T13:41:23;11.65;;;4.10;;
63320;SDS011;49449;48.800;9.534;2023-10-09T13:43:55;12.82;;;4.25;;
63320;SDS011;49449;48.800;9.534;2023-10-09T13:46:24;13.38;;;3.88;;
63320;SDS011;49449;48.800;9.534;2023-10-09T13:48:53;12.13;;;4.20;;
63320;SDS011;49449;48.800;9.534;2023-10-09T13:51:21;16.48;;;4.38;;
63320;SDS011;49449;48.800;9.534;2023-10-09T13:53:50;14.25;;;3.75;;
63320;SDS011;49449;48.800;9.534;2023-10-09T13:56:19;15.13;;;4.57;;
63320;SDS011;49449;48.800;9.534;2023-10-09T13:58:48;14.95;;;4.10;;
63320;SDS011;49449;48.800;9.534;2023-10-09T14:01:18;14.07;;;4.00;;
63320;SDS011;49449;48.800;9.534;2023-10-09T14:03:56;11.38;;;4.38;;
63320;SDS011;49449;48.800;9.534;2023-10-09T14:06:25;14.68;;;5.05;;
63320;SDS011;49449;48.800;9.534;2023-10-09T14:09:00;14.38;;;4.65;;
63320;SDS011;49449;48.800;9.534;2023-10-09T14:14:04;13.13;;;3.80;;
63320;SDS011;49449;48.800;9.534;2023-10-09T14:16:36;11.30;;;4.28;;
63320;SDS011;49449;48.800;9.534;2023-10-09T14:19:10;13.27;;;4.68;;
63320;SDS011;49449;48.800;9.534;2023-10-09T14:21:40;14.48;;;4.55;;
63320;SDS011;49449;48.800;9.534;2023-10-09T14:24:08;10.20;;;4.50;;
63320;SDS011;49449;48.800;9.534;2023-10-09T14:26:43;12.20;;;4.43;;
63320;SDS011;49449;48.800;9.534;2023-10-09T14:29:13;11.82;;;4.60;;
63320;SDS011;49449;48.800;9.534;2023-10-09T14:31:43;14.05;;;4.53;;
63320;SDS011;49449;48.800;9.534;2023-10-09T14:34:17;13.55;;;4.40;;
63320;SDS011;49449;48.800;9.534;2023-10-09T14:36:44;10.57;;;4.40;;
63320;SDS011;49449;48.800;9.534;2023-10-09T14:39:12;10.82;;;4.50;;
63320;SDS011;49449;48.800;9.534;2023-10-09T14:41:45;11.98;;;4.38;;
63320;SDS011;49449;48.800;9.534;2023-10-09T14:44:13;15.15;;;4.65;;
63320;SDS011;49449;48.800;9.534;2023-10-09T14:46:42;12.90;;;4.45;;
63320;SDS011;49449;48.800;9.534;2023-10-09T14:49:10;12.48;;;4.45;;
63320;SDS011;49449;48.800;9.534;2023-10-09T14:51:43;13.50;;;4.68;;
63320;SDS011;49449;48.800;9.534;2023-10-09T14:54:12;12.27;;;4.50;;
63320;SDS011;49449;48.800;9.534;2023-10-09T14:56:44;14.02;;;4.63;;
63320;SDS011;49449;48.800;9.534;2023-10-09T14:59:12;14.90;;;4.88;;
63320;SDS011;49449;48.800;9.534;2023-10-09T15:01:40;13.35;;;3.97;;
63320;SDS011;49449;48.800;9.534;2023-10-09T15:04:08;12.63;;;4.85;;
63320;SDS011;49449;48.800;9.534;2023-10-09T15:06:42;12.02;;;4.30;;
63320;SDS011;49449;48.800;9.534;2023-10-09T15:09:10;12.93;;;4.68;;
63320;SDS011;49449;48.800;9.534;2023-10-09T15:11:48;10.43;;;4.35;;
63320;SDS011;49449;48.800;9.534;2023-10-09T15:14:16;11.98;;;4.10;;
63320;SDS011;49449;48.800;9.534;2023-10-09T15:16:45;12.23;;;4.28;;
63320;SDS011;49449;48.800;9.534;2023-10-09T15:19:13;15.18;;;4.55;;
63320;SDS011;49449;48.800;9.534;2023-10-09T15:21:44;14.10;;;4.70;;
63320;SDS011;49449;48.800;9.534;2023-10-09T15:24:12;15.23;;;4.90;;
63320;SDS011;49449;48.800;9.534;2023-10-09T15:26:44;11.15;;;4.15;;
63320;SDS011;49449;48.800;9.534;2023-10-09T15:29:18;10.98;;;3.67;;
63320;SDS011;49449;48.800;9.534;2023-10-09T15:31:49;16.67;;;4.82;;
63320;SDS011;49449;48.800;9.534;2023-10-09T15:34:17;12.85;;;4.22;;
63320;SDS011;49449;48.800;9.534;2023-10-09T15:36:48;13.48;;;4.43;;
63320;SDS011;49449;48.800;9.534;2023-10-09T15:39:16;10.98;;;4.53;;
63320;SDS011;49449;48.800;9.534;2023-10-09T15:41:45;13.55;;;4.80;;
63320;SDS011;49449;48.800;9.534;2023-10-09T15:44:13;14.82;;;5.05;;
63320;SDS011;49449;48.800;9.534;2023-10-09T15:46:42;13.48;;;4.93;;
63320;SDS011;49449;48.800;9.534;2023-10-09T15:49:11;11.68;;;4.43;;